sensor_id;sensor_type;location;lat;lon;timestamp;P1;durP1;ratioP1;P2;durP2;ratioP2
20814;SDS011;10568;48.176;16.316;2023-02-18T00:01:28;1.30;;;0.60;;
20814;SDS011;10568;48.176;16.316;2023-02-18T00:03:54;1.30;;;0.67;;
20814;SDS011;10568;48.176;16.316;2023-02-18T00:08:48;1.80;;;0.90;;
20814;SDS011;10568;48.176;16.316;2023-02-18T00:11:15;0.87;;;0.70;;
20814;SDS011;10568;48.176;16.316;2023-02-18T00:13:42;0.83;;;0.80;;
20814;SDS011;10568;48.176;16.316;2023-02-18T00:16:13;1.37;;;0.90;;
20814;SDS011;10568;48.176;16.316;2023-02-18T00:18:39;1.53;;;0.87;;
20814;SDS011;10568;48.176;16.316;2023-02-18T00:21:05;1.73;;;0.90;;
20814;SDS011;10568;48.176;16.316;2023-02-18T00:23:32;2.10;;;0.87;;
20814;SDS011;10568;48.176;16.316;2023-02-18T00:25:59;1.00;;;0.80;;
20814;SDS011;10568;48.176;16.316;2023-02-18T00:28:26;1.07;;;0.80;;
20814;SDS011;10568;48.176;16.316;2023-02-18T00:30:52;1.17;;;0.70;;
20814;SDS011;10568;48.176;16.316;2023-02-18T00:33:18;0.80;;;0.70;;
20814;SDS011;10568;48.176;16.316;2023-02-18T00:35:44;1.00;;;0.60;;
20814;SDS011;10568;48.176;16.316;2023-02-18T00:38:10;0.83;;;0.70;;
20814;SDS011;10568;48.176;16.316;2023-02-18T00:40:36;1.33;;;0.70;;
20814;SDS011;10568;48.176;16.316;2023-02-18T00:43:03;1.53;;;0.80;;
20814;SDS011;10568;48.176;16.316;2023-02-18T00:45:29;0.70;;;0.70;;
20814;SDS011;10568;48.176;16.316;2023-02-18T00:47:55;1.60;;;0.80;;
20814;SDS011;10568;48.176;16.316;2023-02-18T00:50:36;0.80;;;0.70;;
20814;SDS011;10568;48.176;16.316;2023-02-18T00:53:01;1.20;;;0.90;;
20814;SDS011;10568;48.176;16.316;2023-02-18T00:55:27;0.70;;;0.60;;
20814;SDS011;10568;48.176;16.316;2023-02-18T00:57:53;1.53;;;0.90;;
20814;SDS011;10568;48.176;16.316;2023-02-18T01:00:19;1.10;;;0.60;;
20814;SDS011;10568;48.176;16.316;2023-02-18T01:02:45;1.37;;;1.00;;
20814;SDS011;10568;48.176;16.316;2023-02-18T01:05:10;1.20;;;0.80;;
20814;SDS011;10568;48.176;16.316;2023-02-18T01:07:36;1.23;;;0.87;;
20814;SDS011;10568;48.176;16.316;2023-02-18T01:10:02;1.37;;;0.90;;
20814;SDS011;10568;48.176;16.316;2023-02-18T01:12:29;1.30;;;0.83;;
20814;SDS011;10568;48.176;16.316;2023-02-18T01:14:55;1.17;;;0.80;;
20814;SDS011;10568;48.176;16.316;2023-02-18T01:17:21;1.10;;;0.80;;
20814;SDS011;10568;48.176;16.316;2023-02-18T01:19:46;1.27;;;1.00;;
20814;SDS011;10568;48.176;16.316;2023-02-18T01:22:12;1.10;;;0.70;;
20814;SDS011;10568;48.176;16.316;2023-02-18T01:24:38;0.60;;;0.60;;
20814;SDS011;10568;48.176;16.316;2023-02-18T01:27:03;1.27;;;0.80;;
20814;SDS011;10568;48.176;16.316;2023-02-18T01:29:29;1.70;;;0.70;;
20814;SDS011;10568;48.176;16.316;2023-02-18T01:31:55;1.50;;;1.00;;
20814;SDS011;10568;48.176;16.316;2023-02-18T01:34:21;1.57;;;0.80;;
20814;SDS011;10568;48.176;16.316;2023-02-18T01:36:46;2.30;;;0.83;;
20814;SDS011;10568;48.176;16.316;2023-02-18T01:39:12;1.37;;;0.80;;
20814;SDS011;10568;48.176;16.316;2023-02-18T01:41:38;1.67;;;0.90;;
20814;SDS011;10568;48.176;16.316;2023-02-18T01:46:36;1.20;;;0.80;;
20814;SDS011;10568;48.176;16.316;2023-02-18T01:49:02;1.13;;;0.90;;
20814;SDS011;10568;48.176;16.316;2023-02-18T01:51:35;2.10;;;0.80;;
20814;SDS011;10568;48.176;16.316;2023-02-18T01:57:18;1.40;;;1.10;;
20814;SDS011;10568;48.176;16.316;2023-02-18T02:00:05;0.90;;;0.70;;
20814;SDS011;10568;48.176;16.316;2023-02-18T02:02:36;1.60;;;1.20;;
20814;SDS011;10568;48.176;16.316;2023-02-18T02:05:06;2.17;;;0.97;;
20814;SDS011;10568;48.176;16.316;2023-02-18T02:07:33;1.90;;;0.87;;
20814;SDS011;10568;48.176;16.316;2023-02-18T02:09:59;1.10;;;1.00;;
20814;SDS011;10568;48.176;16.316;2023-02-18T02:15:24;1.23;;;0.80;;
20814;SDS011;10568;48.176;16.316;2023-02-18T02:18:26;1.50;;;0.90;;
20814;SDS011;10568;48.176;16.316;2023-02-18T02:23:57;2.90;;;0.80;;
20814;SDS011;10568;48.176;16.316;2023-02-18T02:40:43;2.10;;;0.93;;
20814;SDS011;10568;48.176;16.316;2023-02-18T02:45:57;0.93;;;0.77;;
20814;SDS011;10568;48.176;16.316;2023-02-18T02:53:48;1.90;;;1.00;;
20814;SDS011;10568;48.176;16.316;2023-02-18T02:56:17;0.80;;;0.50;;
20814;SDS011;10568;48.176;16.316;2023-02-18T02:58:46;1.10;;;0.67;;
20814;SDS011;10568;48.176;16.316;2023-02-18T03:06:46;2.53;;;1.20;;
20814;SDS011;10568;48.176;16.316;2023-02-18T03:11:50;2.00;;;0.83;;
20814;SDS011;10568;48.176;16.316;2023-02-18T03:14:29;1.97;;;1.10;;
20814;SDS011;10568;48.176;16.316;2023-02-18T03:23:37;1.20;;;0.90;;
20814;SDS011;10568;48.176;16.316;2023-02-18T03:26:25;0.97;;;0.80;;
20814;SDS011;10568;48.176;16.316;2023-02-18T03:28:54;0.80;;;0.80;;
20814;SDS011;10568;48.176;16.316;2023-02-18T03:31:24;1.23;;;0.93;;
20814;SDS011;10568;48.176;16.316;2023-02-18T03:34:04;1.07;;;0.90;;
20814;SDS011;10568;48.176;16.316;2023-02-18T03:36:35;0.87;;;0.73;;
20814;SDS011;10568;48.176;16.316;2023-02-18T03:39:04;1.50;;;1.07;;
20814;SDS011;10568;48.176;16.316;2023-02-18T03:41:34;2.63;;;1.00;;
20814;SDS011;10568;48.176;16.316;2023-02-18T03:44:02;2.00;;;0.77;;
20814;SDS011;10568;48.176;16.316;2023-02-18T03:46:30;2.13;;;1.10;;
20814;SDS011;10568;48.176;16.316;2023-02-18T03:48:57;0.97;;;0.90;;
20814;SDS011;10568;48.176;16.316;2023-02-18T03:51:23;2.40;;;1.00;;
20814;SDS011;10568;48.176;16.316;2023-02-18T03:53:49;1.90;;;0.83;;
20814;SDS011;10568;48.176;16.316;2023-02-18T03:56:14;3.43;;;1.20;;
20814;SDS011;10568;48.176;16.316;2023-02-18T03:58:41;1.30;;;1.00;;
20814;SDS011;10568;48.176;16.316;2023-02-18T04:01:07;2.53;;;0.90;;
20814;SDS011;10568;48.176;16.316;2023-02-18T04:03:33;1.07;;;0.70;;
20814;SDS011;10568;48.176;16.316;2023-02-18T04:05:59;1.77;;;1.00;;
20814;SDS011;10568;48.176;16.316;2023-02-18T04:08:24;1.33;;;0.83;;
20814;SDS011;10568;48.176;16.316;2023-02-18T04:10:50;2.43;;;0.90;;
20814;SDS011;10568;48.176;16.316;2023-02-18T04:13:16;0.80;;;0.70;;
20814;SDS011;10568;48.176;16.316;2023-02-18T04:15:43;0.90;;;0.80;;
20814;SDS011;10568;48.176;16.316;2023-02-18T04:18:09;1.47;;;1.00;;
20814;SDS011;10568;48.176;16.316;2023-02-18T04:20:35;0.73;;;0.73;;
20814;SDS011;10568;48.176;16.316;2023-02-18T04:23:02;0.77;;;0.70;;
20814;SDS011;10568;48.176;16.316;2023-02-18T04:25:28;2.13;;;0.90;;
20814;SDS011;10568;48.176;16.316;2023-02-18T04:27:54;1.23;;;0.47;;
20814;SDS011;10568;48.176;16.316;2023-02-18T04:30:19;0.97;;;0.80;;
20814;SDS011;10568;48.176;16.316;2023-02-18T04:32:46;1.03;;;0.80;;
20814;SDS011;10568;48.176;16.316;2023-02-18T04:35:12;1.23;;;0.93;;
20814;SDS011;10568;48.176;16.316;2023-02-18T04:37:38;1.27;;;0.63;;
20814;SDS011;10568;48.176;16.316;2023-02-18T04:40:04;2.40;;;0.60;;
20814;SDS011;10568;48.176;16.316;2023-02-18T04:42:30;1.03;;;0.60;;
20814;SDS011;10568;48.176;16.316;2023-02-18T04:44:56;0.90;;;0.70;;
20814;SDS011;10568;48.176;16.316;2023-02-18T04:47:21;1.40;;;0.60;;
20814;SDS011;10568;48.176;16.316;2023-02-18T04:49:47;1.30;;;0.70;;
20814;SDS011;10568;48.176;16.316;2023-02-18T04:52:13;1.20;;;0.63;;
20814;SDS011;10568;48.176;16.316;2023-02-18T04:54:39;0.67;;;0.50;;
20814;SDS011;10568;48.176;16.316;2023-02-18T04:57:05;0.97;;;0.70;;
20814;SDS011;10568;48.176;16.316;2023-02-18T04:59:30;0.60;;;0.60;;
20814;SDS011;10568;48.176;16.316;2023-02-18T05:01:56;0.47;;;0.43;;
20814;SDS011;10568;48.176;16.316;2023-02-18T05:04:22;0.47;;;0.47;;
20814;SDS011;10568;48.176;16.316;2023-02-18T05:06:48;0.60;;;0.60;;
20814;SDS011;10568;48.176;16.316;2023-02-18T05:09:14;0.60;;;0.40;;
20814;SDS011;10568;48.176;16.316;2023-02-18T05:11:40;0.50;;;0.50;;
20814;SDS011;10568;48.176;16.316;2023-02-18T05:14:06;0.57;;;0.57;;
20814;SDS011;10568;48.176;16.316;2023-02-18T05:16:32;1.50;;;0.43;;
20814;SDS011;10568;48.176;16.316;2023-02-18T05:18:57;0.70;;;0.57;;
20814;SDS011;10568;48.176;16.316;2023-02-18T05:21:23;0.77;;;0.50;;
20814;SDS011;10568;48.176;16.316;2023-02-18T05:23:49;1.10;;;0.70;;
20814;SDS011;10568;48.176;16.316;2023-02-18T05:26:15;1.87;;;0.60;;
20814;SDS011;10568;48.176;16.316;2023-02-18T05:28:41;0.70;;;0.53;;
20814;SDS011;10568;48.176;16.316;2023-02-18T05:31:06;0.73;;;0.50;;
20814;SDS011;10568;48.176;16.316;2023-02-18T05:33:32;0.40;;;0.40;;
20814;SDS011;10568;48.176;16.316;2023-02-18T05:35:58;1.53;;;0.40;;
20814;SDS011;10568;48.176;16.316;2023-02-18T05:38:24;0.80;;;0.50;;
20814;SDS011;10568;48.176;16.316;2023-02-18T05:40:50;0.50;;;0.50;;
20814;SDS011;10568;48.176;16.316;2023-02-18T05:43:15;1.60;;;0.60;;
20814;SDS011;10568;48.176;16.316;2023-02-18T05:45:41;0.70;;;0.50;;
20814;SDS011;10568;48.176;16.316;2023-02-18T05:48:07;0.43;;;0.40;;
20814;SDS011;10568;48.176;16.316;2023-02-18T05:50:33;0.67;;;0.50;;
20814;SDS011;10568;48.176;16.316;2023-02-18T05:52:59;0.70;;;0.50;;
20814;SDS011;10568;48.176;16.316;2023-02-18T05:55:25;3.07;;;0.60;;
20814;SDS011;10568;48.176;16.316;2023-02-18T05:57:51;0.50;;;0.43;;
20814;SDS011;10568;48.176;16.316;2023-02-18T06:00:17;0.53;;;0.50;;
20814;SDS011;10568;48.176;16.316;2023-02-18T06:02:43;0.60;;;0.43;;
20814;SDS011;10568;48.176;16.316;2023-02-18T06:05:09;0.40;;;0.40;;
20814;SDS011;10568;48.176;16.316;2023-02-18T06:07:35;0.53;;;0.43;;
20814;SDS011;10568;48.176;16.316;2023-02-18T06:10:01;0.57;;;0.40;;
20814;SDS011;10568;48.176;16.316;2023-02-18T06:12:27;0.70;;;0.50;;
20814;SDS011;10568;48.176;16.316;2023-02-18T06:14:53;0.40;;;0.33;;
20814;SDS011;10568;48.176;16.316;2023-02-18T06:17:19;0.80;;;0.50;;
20814;SDS011;10568;48.176;16.316;2023-02-18T06:19:46;0.70;;;0.50;;
20814;SDS011;10568;48.176;16.316;2023-02-18T06:22:13;0.43;;;0.40;;
20814;SDS011;10568;48.176;16.316;2023-02-18T06:24:39;1.60;;;0.50;;
20814;SDS011;10568;48.176;16.316;2023-02-18T06:27:05;0.40;;;0.40;;
20814;SDS011;10568;48.176;16.316;2023-02-18T06:29:31;0.80;;;0.40;;
20814;SDS011;10568;48.176;16.316;2023-02-18T06:31:57;0.50;;;0.40;;
20814;SDS011;10568;48.176;16.316;2023-02-18T06:34:24;0.73;;;0.40;;
20814;SDS011;10568;48.176;16.316;2023-02-18T06:36:50;0.40;;;0.40;;
20814;SDS011;10568;48.176;16.316;2023-02-18T06:39:16;0.30;;;0.30;;
20814;SDS011;10568;48.176;16.316;2023-02-18T06:41:42;1.37;;;0.50;;
20814;SDS011;10568;48.176;16.316;2023-02-18T06:44:08;0.40;;;0.40;;
20814;SDS011;10568;48.176;16.316;2023-02-18T06:46:35;0.63;;;0.30;;
20814;SDS011;10568;48.176;16.316;2023-02-18T06:49:01;1.27;;;0.50;;
20814;SDS011;10568;48.176;16.316;2023-02-18T06:51:28;0.53;;;0.43;;
20814;SDS011;10568;48.176;16.316;2023-02-18T06:53:54;0.70;;;0.40;;
20814;SDS011;10568;48.176;16.316;2023-02-18T06:56:19;1.27;;;0.50;;
20814;SDS011;10568;48.176;16.316;2023-02-18T06:58:45;1.20;;;0.40;;
20814;SDS011;10568;48.176;16.316;2023-02-18T07:01:11;0.60;;;0.60;;
20814;SDS011;10568;48.176;16.316;2023-02-18T07:03:37;0.63;;;0.60;;
20814;SDS011;10568;48.176;16.316;2023-02-18T07:06:02;1.63;;;0.50;;
20814;SDS011;10568;48.176;16.316;2023-02-18T07:08:28;0.40;;;0.40;;
20814;SDS011;10568;48.176;16.316;2023-02-18T07:10:55;0.77;;;0.77;;
20814;SDS011;10568;48.176;16.316;2023-02-18T07:13:21;0.60;;;0.40;;
20814;SDS011;10568;48.176;16.316;2023-02-18T07:15:47;0.67;;;0.60;;
20814;SDS011;10568;48.176;16.316;2023-02-18T07:18:12;0.73;;;0.57;;
20814;SDS011;10568;48.176;16.316;2023-02-18T07:20:38;0.77;;;0.60;;
20814;SDS011;10568;48.176;16.316;2023-02-18T07:23:04;0.87;;;0.77;;
20814;SDS011;10568;48.176;16.316;2023-02-18T07:25:30;0.97;;;0.60;;
20814;SDS011;10568;48.176;16.316;2023-02-18T07:27:56;0.73;;;0.70;;
20814;SDS011;10568;48.176;16.316;2023-02-18T07:30:21;1.10;;;0.60;;
20814;SDS011;10568;48.176;16.316;2023-02-18T07:32:47;1.00;;;0.70;;
20814;SDS011;10568;48.176;16.316;2023-02-18T07:35:14;0.53;;;0.53;;
20814;SDS011;10568;48.176;16.316;2023-02-18T07:37:47;0.80;;;0.73;;
20814;SDS011;10568;48.176;16.316;2023-02-18T07:40:14;0.87;;;0.70;;
20814;SDS011;10568;48.176;16.316;2023-02-18T07:42:42;1.33;;;0.80;;
20814;SDS011;10568;48.176;16.316;2023-02-18T07:45:08;0.80;;;0.80;;
20814;SDS011;10568;48.176;16.316;2023-02-18T07:47:35;0.53;;;0.50;;
20814;SDS011;10568;48.176;16.316;2023-02-18T07:50:01;1.47;;;0.77;;
20814;SDS011;10568;48.176;16.316;2023-02-18T07:52:27;1.70;;;0.73;;
20814;SDS011;10568;48.176;16.316;2023-02-18T07:54:53;0.90;;;0.60;;
20814;SDS011;10568;48.176;16.316;2023-02-18T07:57:19;0.87;;;0.70;;
20814;SDS011;10568;48.176;16.316;2023-02-18T07:59:44;0.63;;;0.60;;
20814;SDS011;10568;48.176;16.316;2023-02-18T08:02:18;0.80;;;0.73;;
20814;SDS011;10568;48.176;16.316;2023-02-18T08:04:46;0.43;;;0.43;;
20814;SDS011;10568;48.176;16.316;2023-02-18T08:07:13;1.47;;;0.70;;
20814;SDS011;10568;48.176;16.316;2023-02-18T08:09:40;0.50;;;0.50;;
20814;SDS011;10568;48.176;16.316;2023-02-18T08:12:06;0.73;;;0.50;;
20814;SDS011;10568;48.176;16.316;2023-02-18T08:14:32;0.57;;;0.57;;
20814;SDS011;10568;48.176;16.316;2023-02-18T08:16:57;1.03;;;0.80;;
20814;SDS011;10568;48.176;16.316;2023-02-18T08:19:23;0.80;;;0.70;;
20814;SDS011;10568;48.176;16.316;2023-02-18T08:21:49;1.27;;;1.10;;
20814;SDS011;10568;48.176;16.316;2023-02-18T08:24:15;1.73;;;0.73;;
20814;SDS011;10568;48.176;16.316;2023-02-18T08:26:41;0.70;;;0.67;;
20814;SDS011;10568;48.176;16.316;2023-02-18T08:29:06;2.93;;;0.80;;
20814;SDS011;10568;48.176;16.316;2023-02-18T08:31:32;0.90;;;0.60;;
20814;SDS011;10568;48.176;16.316;2023-02-18T08:33:59;1.10;;;0.80;;
20814;SDS011;10568;48.176;16.316;2023-02-18T08:36:27;0.83;;;0.63;;
20814;SDS011;10568;48.176;16.316;2023-02-18T08:38:53;0.87;;;0.80;;
20814;SDS011;10568;48.176;16.316;2023-02-18T08:41:19;1.77;;;0.80;;
20814;SDS011;10568;48.176;16.316;2023-02-18T08:43:45;1.03;;;0.73;;
20814;SDS011;10568;48.176;16.316;2023-02-18T08:46:11;0.70;;;0.70;;
20814;SDS011;10568;48.176;16.316;2023-02-18T08:48:37;1.23;;;0.93;;
20814;SDS011;10568;48.176;16.316;2023-02-18T08:51:36;0.80;;;0.80;;
20814;SDS011;10568;48.176;16.316;2023-02-18T08:53:55;1.00;;;0.90;;
20814;SDS011;10568;48.176;16.316;2023-02-18T08:56:21;1.73;;;0.73;;
20814;SDS011;10568;48.176;16.316;2023-02-18T08:58:47;0.70;;;0.63;;
20814;SDS011;10568;48.176;16.316;2023-02-18T09:01:12;0.90;;;0.83;;
20814;SDS011;10568;48.176;16.316;2023-02-18T09:03:38;2.83;;;0.70;;
20814;SDS011;10568;48.176;16.316;2023-02-18T09:06:05;1.57;;;0.83;;
20814;SDS011;10568;48.176;16.316;2023-02-18T09:08:31;1.27;;;0.60;;
20814;SDS011;10568;48.176;16.316;2023-02-18T09:10:58;0.70;;;0.70;;
20814;SDS011;10568;48.176;16.316;2023-02-18T09:13:25;0.60;;;0.60;;
20814;SDS011;10568;48.176;16.316;2023-02-18T09:16:03;0.77;;;0.60;;
20814;SDS011;10568;48.176;16.316;2023-02-18T09:18:31;0.77;;;0.73;;
20814;SDS011;10568;48.176;16.316;2023-02-18T09:21:00;0.73;;;0.50;;
20814;SDS011;10568;48.176;16.316;2023-02-18T09:23:27;0.70;;;0.70;;
20814;SDS011;10568;48.176;16.316;2023-02-18T09:25:54;0.60;;;0.60;;
20814;SDS011;10568;48.176;16.316;2023-02-18T09:28:20;1.20;;;0.60;;
20814;SDS011;10568;48.176;16.316;2023-02-18T09:30:47;0.70;;;0.60;;
20814;SDS011;10568;48.176;16.316;2023-02-18T09:33:13;1.27;;;0.70;;
20814;SDS011;10568;48.176;16.316;2023-02-18T09:35:40;0.90;;;0.70;;
20814;SDS011;10568;48.176;16.316;2023-02-18T09:38:11;0.50;;;0.50;;
20814;SDS011;10568;48.176;16.316;2023-02-18T09:40:40;1.17;;;0.77;;
20814;SDS011;10568;48.176;16.316;2023-02-18T09:43:17;1.40;;;0.60;;
20814;SDS011;10568;48.176;16.316;2023-02-18T09:45:48;0.67;;;0.60;;
20814;SDS011;10568;48.176;16.316;2023-02-18T09:48:16;1.67;;;0.80;;
20814;SDS011;10568;48.176;16.316;2023-02-18T09:50:41;1.27;;;0.80;;
20814;SDS011;10568;48.176;16.316;2023-02-18T09:53:13;0.57;;;0.57;;
20814;SDS011;10568;48.176;16.316;2023-02-18T09:55:40;0.70;;;0.70;;
20814;SDS011;10568;48.176;16.316;2023-02-18T09:58:16;0.67;;;0.67;;
20814;SDS011;10568;48.176;16.316;2023-02-18T10:01:05;1.37;;;0.70;;
20814;SDS011;10568;48.176;16.316;2023-02-18T10:03:43;0.80;;;0.60;;
20814;SDS011;10568;48.176;16.316;2023-02-18T10:06:10;0.77;;;0.70;;
20814;SDS011;10568;48.176;16.316;2023-02-18T10:08:43;1.83;;;0.70;;
20814;SDS011;10568;48.176;16.316;2023-02-18T10:11:12;3.93;;;1.00;;
20814;SDS011;10568;48.176;16.316;2023-02-18T10:13:52;2.27;;;0.70;;
20814;SDS011;10568;48.176;16.316;2023-02-18T10:16:19;3.33;;;0.77;;
20814;SDS011;10568;48.176;16.316;2023-02-18T10:18:48;2.73;;;0.97;;
20814;SDS011;10568;48.176;16.316;2023-02-18T10:21:20;0.90;;;0.70;;
20814;SDS011;10568;48.176;16.316;2023-02-18T10:24:03;0.90;;;0.80;;
20814;SDS011;10568;48.176;16.316;2023-02-18T10:26:33;0.70;;;0.63;;
20814;SDS011;10568;48.176;16.316;2023-02-18T10:29:01;0.53;;;0.53;;
20814;SDS011;10568;48.176;16.316;2023-02-18T10:31:29;0.80;;;0.63;;
20814;SDS011;10568;48.176;16.316;2023-02-18T10:36:46;1.20;;;0.73;;
20814;SDS011;10568;48.176;16.316;2023-02-18T10:42:19;1.23;;;0.50;;
20814;SDS011;10568;48.176;16.316;2023-02-18T10:45:08;2.50;;;0.60;;
20814;SDS011;10568;48.176;16.316;2023-02-18T10:47:37;4.57;;;0.80;;
20814;SDS011;10568;48.176;16.316;2023-02-18T10:50:12;0.80;;;0.67;;
20814;SDS011;10568;48.176;16.316;2023-02-18T10:52:49;0.70;;;0.70;;
20814;SDS011;10568;48.176;16.316;2023-02-18T10:55:17;0.50;;;0.50;;
20814;SDS011;10568;48.176;16.316;2023-02-18T11:02:43;0.70;;;0.70;;
20814;SDS011;10568;48.176;16.316;2023-02-18T11:07:55;1.10;;;0.77;;
20814;SDS011;10568;48.176;16.316;2023-02-18T11:10:33;0.97;;;0.70;;
20814;SDS011;10568;48.176;16.316;2023-02-18T11:13:04;0.90;;;0.70;;
20814;SDS011;10568;48.176;16.316;2023-02-18T11:15:32;1.13;;;0.80;;
20814;SDS011;10568;48.176;16.316;2023-02-18T11:18:13;1.00;;;0.80;;
20814;SDS011;10568;48.176;16.316;2023-02-18T11:21:05;0.70;;;0.60;;
20814;SDS011;10568;48.176;16.316;2023-02-18T11:23:50;1.27;;;0.93;;
20814;SDS011;10568;48.176;16.316;2023-02-18T11:26:23;0.80;;;0.70;;
20814;SDS011;10568;48.176;16.316;2023-02-18T11:28:56;2.07;;;0.90;;
20814;SDS011;10568;48.176;16.316;2023-02-18T11:31:43;1.20;;;0.80;;
20814;SDS011;10568;48.176;16.316;2023-02-18T11:34:21;0.73;;;0.70;;
20814;SDS011;10568;48.176;16.316;2023-02-18T11:36:50;1.80;;;1.07;;
20814;SDS011;10568;48.176;16.316;2023-02-18T11:39:21;1.90;;;0.90;;
20814;SDS011;10568;48.176;16.316;2023-02-18T11:41:55;1.50;;;0.87;;
20814;SDS011;10568;48.176;16.316;2023-02-18T11:44:30;1.33;;;0.70;;
20814;SDS011;10568;48.176;16.316;2023-02-18T11:47:03;1.27;;;0.93;;
20814;SDS011;10568;48.176;16.316;2023-02-18T11:49:30;0.77;;;0.70;;
20814;SDS011;10568;48.176;16.316;2023-02-18T11:52:13;1.33;;;0.70;;
20814;SDS011;10568;48.176;16.316;2023-02-18T11:54:40;1.57;;;1.07;;
20814;SDS011;10568;48.176;16.316;2023-02-18T11:57:09;0.90;;;0.80;;
20814;SDS011;10568;48.176;16.316;2023-02-18T11:59:38;1.17;;;0.73;;
20814;SDS011;10568;48.176;16.316;2023-02-18T12:09:47;1.70;;;0.70;;
20814;SDS011;10568;48.176;16.316;2023-02-18T12:15:00;1.30;;;0.70;;
20814;SDS011;10568;48.176;16.316;2023-02-18T12:19:59;0.80;;;0.60;;
20814;SDS011;10568;48.176;16.316;2023-02-18T12:22:50;1.30;;;0.50;;
20814;SDS011;10568;48.176;16.316;2023-02-18T12:28:50;2.23;;;0.60;;
20814;SDS011;10568;48.176;16.316;2023-02-18T12:33:55;1.47;;;0.47;;
20814;SDS011;10568;48.176;16.316;2023-02-18T12:36:34;1.20;;;0.73;;
20814;SDS011;10568;48.176;16.316;2023-02-18T12:42:24;1.07;;;0.70;;
20814;SDS011;10568;48.176;16.316;2023-02-18T12:50:37;0.90;;;0.60;;
20814;SDS011;10568;48.176;16.316;2023-02-18T12:53:29;1.23;;;0.70;;
20814;SDS011;10568;48.176;16.316;2023-02-18T13:01:40;0.43;;;0.43;;
20814;SDS011;10568;48.176;16.316;2023-02-18T13:04:35;0.90;;;0.63;;
20814;SDS011;10568;48.176;16.316;2023-02-18T13:07:24;0.87;;;0.50;;
20814;SDS011;10568;48.176;16.316;2023-02-18T13:10:01;0.63;;;0.57;;
20814;SDS011;10568;48.176;16.316;2023-02-18T13:17:59;0.73;;;0.50;;
20814;SDS011;10568;48.176;16.316;2023-02-18T13:22:55;0.93;;;0.70;;
20814;SDS011;10568;48.176;16.316;2023-02-18T13:25:21;0.67;;;0.47;;
20814;SDS011;10568;48.176;16.316;2023-02-18T13:33:22;0.70;;;0.50;;
20814;SDS011;10568;48.176;16.316;2023-02-18T13:36:29;0.60;;;0.50;;
20814;SDS011;10568;48.176;16.316;2023-02-18T13:39:13;0.90;;;0.53;;
20814;SDS011;10568;48.176;16.316;2023-02-18T13:41:44;0.87;;;0.50;;
20814;SDS011;10568;48.176;16.316;2023-02-18T13:46:49;1.60;;;0.57;;
20814;SDS011;10568;48.176;16.316;2023-02-18T13:49:18;0.87;;;0.53;;
20814;SDS011;10568;48.176;16.316;2023-02-18T13:51:47;0.97;;;0.70;;
20814;SDS011;10568;48.176;16.316;2023-02-18T13:56:57;0.80;;;0.47;;
20814;SDS011;10568;48.176;16.316;2023-02-18T14:04:50;0.63;;;0.40;;
20814;SDS011;10568;48.176;16.316;2023-02-18T14:10:13;2.23;;;0.37;;
20814;SDS011;10568;48.176;16.316;2023-02-18T14:15:45;1.90;;;0.40;;
20814;SDS011;10568;48.176;16.316;2023-02-18T14:18:53;0.40;;;0.30;;
20814;SDS011;10568;48.176;16.316;2023-02-18T14:21:20;0.73;;;0.43;;
20814;SDS011;10568;48.176;16.316;2023-02-18T14:24:00;0.40;;;0.23;;
20814;SDS011;10568;48.176;16.316;2023-02-18T14:26:28;1.23;;;0.53;;
20814;SDS011;10568;48.176;16.316;2023-02-18T14:31:35;0.30;;;0.30;;
20814;SDS011;10568;48.176;16.316;2023-02-18T14:51:30;0.30;;;0.30;;
20814;SDS011;10568;48.176;16.316;2023-02-18T14:54:01;0.37;;;0.30;;
20814;SDS011;10568;48.176;16.316;2023-02-18T14:56:38;0.80;;;0.43;;
20814;SDS011;10568;48.176;16.316;2023-02-18T14:59:17;0.40;;;0.40;;
20814;SDS011;10568;48.176;16.316;2023-02-18T15:01:46;1.03;;;0.40;;
20814;SDS011;10568;48.176;16.316;2023-02-18T15:04:15;0.60;;;0.40;;
20814;SDS011;10568;48.176;16.316;2023-02-18T15:06:41;0.30;;;0.30;;
20814;SDS011;10568;48.176;16.316;2023-02-18T15:09:43;0.27;;;0.27;;
20814;SDS011;10568;48.176;16.316;2023-02-18T15:11:59;0.77;;;0.53;;
20814;SDS011;10568;48.176;16.316;2023-02-18T15:14:34;0.50;;;0.40;;
20814;SDS011;10568;48.176;16.316;2023-02-18T15:17:11;0.60;;;0.40;;
20814;SDS011;10568;48.176;16.316;2023-02-18T15:19:42;0.50;;;0.40;;
20814;SDS011;10568;48.176;16.316;2023-02-18T15:22:17;0.47;;;0.43;;
20814;SDS011;10568;48.176;16.316;2023-02-18T15:24:48;0.20;;;0.20;;
20814;SDS011;10568;48.176;16.316;2023-02-18T15:27:22;0.40;;;0.40;;
20814;SDS011;10568;48.176;16.316;2023-02-18T15:30:13;0.27;;;0.23;;
20814;SDS011;10568;48.176;16.316;2023-02-18T15:32:56;0.30;;;0.30;;
20814;SDS011;10568;48.176;16.316;2023-02-18T15:35:28;0.60;;;0.40;;
20814;SDS011;10568;48.176;16.316;2023-02-18T15:37:58;0.30;;;0.30;;
20814;SDS011;10568;48.176;16.316;2023-02-18T15:40:26;0.30;;;0.30;;
20814;SDS011;10568;48.176;16.316;2023-02-18T15:43:03;0.50;;;0.30;;
20814;SDS011;10568;48.176;16.316;2023-02-18T15:47:58;0.60;;;0.40;;
20814;SDS011;10568;48.176;16.316;2023-02-18T15:52:58;1.17;;;0.60;;
20814;SDS011;10568;48.176;16.316;2023-02-18T15:55:31;0.33;;;0.33;;
20814;SDS011;10568;48.176;16.316;2023-02-18T15:58:03;0.53;;;0.37;;
20814;SDS011;10568;48.176;16.316;2023-02-18T16:00:34;0.77;;;0.40;;
20814;SDS011;10568;48.176;16.316;2023-02-18T16:03:11;0.40;;;0.40;;
20814;SDS011;10568;48.176;16.316;2023-02-18T16:05:38;0.87;;;0.50;;
20814;SDS011;10568;48.176;16.316;2023-02-18T16:08:12;0.60;;;0.47;;
20814;SDS011;10568;48.176;16.316;2023-02-18T16:10:41;2.00;;;0.50;;
20814;SDS011;10568;48.176;16.316;2023-02-18T16:13:16;0.60;;;0.50;;
20814;SDS011;10568;48.176;16.316;2023-02-18T16:15:43;0.43;;;0.30;;
20814;SDS011;10568;48.176;16.316;2023-02-18T16:18:23;0.77;;;0.50;;
20814;SDS011;10568;48.176;16.316;2023-02-18T16:21:06;0.63;;;0.50;;
20814;SDS011;10568;48.176;16.316;2023-02-18T16:23:59;0.50;;;0.50;;
20814;SDS011;10568;48.176;16.316;2023-02-18T16:26:59;0.50;;;0.50;;
20814;SDS011;10568;48.176;16.316;2023-02-18T16:29:25;0.33;;;0.30;;
20814;SDS011;10568;48.176;16.316;2023-02-18T16:31:58;2.90;;;0.50;;
20814;SDS011;10568;48.176;16.316;2023-02-18T16:34:26;0.70;;;0.50;;
20814;SDS011;10568;48.176;16.316;2023-02-18T16:36:52;0.53;;;0.43;;
20814;SDS011;10568;48.176;16.316;2023-02-18T16:39:36;0.43;;;0.30;;
20814;SDS011;10568;48.176;16.316;2023-02-18T16:42:02;0.50;;;0.40;;
20814;SDS011;10568;48.176;16.316;2023-02-18T16:44:32;0.57;;;0.40;;
20814;SDS011;10568;48.176;16.316;2023-02-18T16:46:58;1.43;;;0.60;;
20814;SDS011;10568;48.176;16.316;2023-02-18T16:49:24;0.40;;;0.40;;
20814;SDS011;10568;48.176;16.316;2023-02-18T16:51:51;0.83;;;0.50;;
20814;SDS011;10568;48.176;16.316;2023-02-18T16:54:17;0.40;;;0.30;;
20814;SDS011;10568;48.176;16.316;2023-02-18T16:56:43;0.50;;;0.40;;
20814;SDS011;10568;48.176;16.316;2023-02-18T16:59:09;0.53;;;0.40;;
20814;SDS011;10568;48.176;16.316;2023-02-18T17:01:35;0.63;;;0.50;;
20814;SDS011;10568;48.176;16.316;2023-02-18T17:04:08;0.47;;;0.40;;
20814;SDS011;10568;48.176;16.316;2023-02-18T17:06:37;1.00;;;0.60;;
20814;SDS011;10568;48.176;16.316;2023-02-18T17:09:12;3.17;;;0.67;;
20814;SDS011;10568;48.176;16.316;2023-02-18T17:11:46;0.30;;;0.30;;
20814;SDS011;10568;48.176;16.316;2023-02-18T17:14:15;0.30;;;0.23;;
20814;SDS011;10568;48.176;16.316;2023-02-18T17:16:48;0.40;;;0.30;;
20814;SDS011;10568;48.176;16.316;2023-02-18T17:19:16;0.80;;;0.40;;
20814;SDS011;10568;48.176;16.316;2023-02-18T17:21:42;0.20;;;0.20;;